• Join FlightAware (Why Join?)
  • Login
  • US Flag 
08:38AM EDT


 

Airport Tracker/Info


-or-


 

Live Flight TrackerFlight Track Log ✈ AWE3827 ✈ 10-Apr-2013 ✈ KCLT - KBNA

Flight Track Log - Related Links

Times and Time Zones

All times are in EDT time to prevent confusion due to time zone crossing. See the AWE3827 flight status page for this flight to view local times or setup timezone preferences in your user account.

Time Position Orientation Groundspeed Altitude Reporting Facility
EDT Latitude Longitude Course Direction KTS MPH feet Rate Location/Type
08:10AM 35.1911 -80.9508 172° South 163 188 1,600  Level Atlanta Center
08:10AM 35.1761 -80.9483 172° South 161 185 2,100 1,020 Climbing FAA TRACON SMA TRACON (SMA)
08:11AM 35.1597 -80.9486 181° South 202 232 2,400 1,680 Climbing FAA TRACON SMA TRACON (SMA)
08:11AM 35.1378 -80.9536 191° South 209 241 3,200 2,100 Climbing FAA TRACON SMA TRACON (SMA)
08:11AM 35.1233 -80.9611 203° Southwest 213 245 3,800 1,620 Climbing FAA TRACON SMA TRACON (SMA)
08:12AM 35.1111 -80.9831 236° Southwest 238 274 4,300 1,920 Climbing FAA TRACON SMA TRACON (SMA)
08:12AM 35.1136 -81.0156 275° West 249 287 5,100 2,100 Climbing FAA TRACON SMA TRACON (SMA)
08:12AM 35.1161 -81.0425 276° West 264 304 5,700 1,920 Climbing FAA TRACON SMA TRACON (SMA)
08:13AM 35.1183 -81.0700 276° West 266 306 6,400 2,220 Climbing FAA TRACON SMA TRACON (SMA)
08:13AM 35.1217 -81.1050 277° West 268 308 7,200 2,400 Climbing FAA TRACON SMA TRACON (SMA)
08:13AM 35.1242 -81.1336 276° West 271 312 8,000 2,220 Climbing FAA TRACON SMA TRACON (SMA)
08:14AM 35.1267 -81.1625 276° West 274 315 8,700 2,400 Climbing FAA TRACON SMA TRACON (SMA)
08:14AM 35.1292 -81.1958 275° West 277 319 9,600 2,400 Climbing FAA TRACON SMA TRACON (SMA)
08:14AM 35.1331 -81.2275 279° West 278 320 10,300 1,620 Climbing FAA TRACON SMA TRACON (SMA)
08:15AM 35.1350 -81.2572 275° West 283 326 10,700 1,200 Climbing FAA TRACON SMA TRACON (SMA)
08:15AM 35.1375 -81.2969 274° West 303 349 11,100 1,020 Climbing FAA TRACON SMA TRACON (SMA)
08:15AM 35.1392 -81.3308 273° West 318 366 11,400 840 Climbing FAA TRACON SMA TRACON (SMA)
08:16AM 35.1411 -81.3658 274° West 330 380 11,700 1,620 Climbing FAA TRACON SMA TRACON (SMA)
08:16AM 35.1442 -81.4094 275° West 335 386 12,500 1,920 Climbing FAA TRACON SMA TRACON (SMA)
08:16AM 35.1461 -81.4444 274° West 335 386 13,000 1,500 Climbing FAA TRACON SMA TRACON (SMA)
08:17AM 35.1483 -81.4794 274° West 335 386 13,500 1,500 Climbing FAA TRACON SMA TRACON (SMA)
08:17AM 35.1478 -81.5150 269° West 342 394 14,000 1,500 Climbing FAA TRACON SMA TRACON (SMA)
08:17AM 35.1447 -81.5506 264° West 341 392 14,500 720 Climbing FAA TRACON SMA TRACON (SMA)
08:18AM 35.1447 -81.5506 59° Northeast 341 392 14,500 1,500 Level FAA TRACON SMA TRACON (SMA)
08:18AM 35.1361 -81.6692 265° West 358 412 15,900 1,740 Climbing Atlanta Center
08:19AM 35.1344 -81.7886 269° West 358 412 17,300 1,020 Climbing Atlanta Center
08:20AM 35.1761 -81.9044 294° West 360 414 18,000 480 Climbing Atlanta Center
08:21AM 35.2153 -82.0050 296° West 365 420 18,300 900 Climbing Atlanta Center
08:22AM 35.2589 -82.1208 295° West 371 427 19,800 1,440 Climbing Atlanta Center
08:23AM 35.3025 -82.2369 295° West 371 427 21,200 1,380 Climbing Atlanta Center
08:24AM 35.3436 -82.3481 294° West 371 427 22,600 1,200 Climbing Atlanta Center
08:25AM 35.3847 -82.4619 294° West 366 421 23,700 1,020 Climbing Atlanta Center
08:26AM 35.4133 -82.5683 288° West 366 421 24,700 1,140 Climbing Atlanta Center
08:27AM 35.4228 -82.6828 276° West 354 407 26,000 600 Climbing Atlanta Center
08:28AM 35.4369 -82.8256 277° West 348 400 26,000  Level Atlanta Center
08:29AM 35.4503 -82.9297 279° West 353 406 26,000  Level Atlanta Center
08:30AM 35.4639 -83.0569 278° West 348 400 26,000  Level Atlanta Center
08:31AM 35.4775 -83.1792 278° West 353 406 26,000  Level Atlanta Center
08:32AM 35.4928 -83.2989 279° West 353 406 26,000  Level Atlanta Center
08:33AM 35.5061 -83.4239 278° West 353 406 26,000  Level Atlanta Center
08:34AM 35.5192 -83.5439 278° West 358 412 26,000  Level Atlanta Center
08:35AM 35.5319 -83.6686 277° West 358 412 26,000  Level Atlanta Center
08:36AM 35.5450 -83.7936 277° West 368 423 26,000  Level Atlanta Center
08:37AM 35.5575 -83.9161 277° West 373 429 26,000  Level Atlanta Center
08:38AM 35.5703 -84.0389 277° West 373 429 26,000 -420 Level Atlanta Center
08:39AM 35.5825 -84.1664 277° West 368 423 25,200 -900 Descending Atlanta Center
08:40AM 35.5950 -84.2942 277° West 368 423 24,200 -900 Descending Atlanta Center
08:41AM 35.6092 -84.4194 278° West 373 429 23,400 -900 Descending Atlanta Center
08:42AM 35.6214 -84.5419 277° West 368 423 22,400 -1,020 Descending Atlanta Center
08:43AM 35.6333 -84.6647 277° West 368 423 21,400 -1,080 Descending Atlanta Center
08:44AM 35.6450 -84.7825 277° West 368 423 20,300 -720 Descending Atlanta Center
08:45AM 35.6569 -84.9000 277° West 363 418 20,000 -180 Descending Atlanta Center
08:46AM 35.6644 -84.9972 275° West 358 412 20,000  Level Atlanta Center
08:47AM 35.6811 -85.1714 277° West 348 400 20,000  Level Memphis Center
08:48AM 35.6756 -85.2894 267° West 348 400 20,000 -780 Level Memphis Center
08:49AM 35.6744 -85.4147 269° West 354 407 18,500 -1,500 Descending Memphis Center
08:50AM 35.6731 -85.5450 269° West 373 429 17,100 -1,500 Descending Memphis Center
08:51AM 35.6697 -85.6756 268° West 386 444 15,500 -1,560 Descending Memphis Center
08:52AM 35.6594 -85.7861 264° West 367 422 14,000 -1,500 Descending Memphis Center
08:53AM 35.6225 -85.8622 239° Southwest 319 367 12,500 -1,500 Descending Memphis Center
08:54AM 35.6178 -85.9619 267° West 300 345 11,000 -1,260 Descending Memphis Center
08:55AM 35.6669 -86.0539 303° West 298 343 10,000 -900 Descending Memphis Center
08:56AM 35.7194 -86.1278 311° West 293 337 9,200 -900 Descending Memphis Center
08:57AM 35.7697 -86.1994 311° West 288 331 8,300 -900 Descending Memphis Center
08:58AM 35.8286 -86.2758 314° West 282 325 7,500 -780 Descending Memphis Center
08:59AM 35.8811 -86.3475 312° West 282 325 6,800 -660 Descending Memphis Center
09:00AM 35.9353 -86.4167 314° West 282 325 6,200 -420 Descending Memphis Center
09:01AM 35.9856 -86.4836 313° West 277 319 6,000 -120 Descending Memphis Center
09:02AM 36.0333 -86.5453 314° West 269 310 6,000 -420 Level Memphis Center
09:03AM 36.0964 -86.5681 344° North 240 276 5,200 -540 Descending Memphis Center
09:04AM 36.1622 -86.5394 19° North 235 270 5,000 -360 Descending Memphis Center
09:05AM 36.2303 -86.5131 17° North 240 276 4,500 -540 Descending Memphis Center
09:06AM 36.2950 -86.5125 360° North 246 283 4,000 -900 Descending Memphis Center
09:07AM 36.2861 -86.5697 259° West 138 159 2,800 -780 Descending Memphis Center
09:09AM 36.2167 -86.6167 209° Southwest 164 189 2,000 -480 Descending Nashville TRACON
09:10AM 36.1833 -86.6333 202° Southwest 143 165 1,700 -420 Descending Nashville TRACON